1887 Hurricane NOT_NAMED (1887276N12322)


IBTrACS version v04r00. Visit IBTrACS website for data access.
Please direct all questions to the IBTrACS Q and A forum

Storm track - Intensity - Wind Radii - Intensity Data - Source Data - All data

Summary Information

Storm ID 1887276N12322
Start Oct 2 12Z
Max Intensity 80 kt (Oct 11 18Z), 965 mb (Oct 12 12Z)
End Oct 21 12Z
ATCF IDs
Track status Best track data.

Storm track plot

Map of storm track

Intensity plots

Map of storm track

Radial wind information

No radial wind information for this storm


Position and Intensity Table

BASIN ISO_TIME_________ NATURE LAT LON MLC WIND MLC PRES
degrees north degrees east kts mb
NA 1887-10-02 12:00:00 TS 11.50 -38.00 45 1002
NA 15:00:00 TS 11.50 -38.50 45
NA 18:00:00 TS 11.50 -39.00 45
NA 21:00:00 TS 11.50 -39.50 45
NA 1887-10-03 00:00:00 TS 11.50 -40.00 45
NA 03:00:00 TS 11.50 -40.50 45
NA 06:00:00 TS 11.50 -41.00 45
NA 09:00:00 TS 11.46 -41.52 47
NA 12:00:00 TS 11.50 -42.00 50
NA 15:00:00 TS 11.70 -42.38 50
NA 18:00:00 TS 12.00 -42.70 50
NA 21:00:00 TS 12.29 -43.01 50
NA 1887-10-04 00:00:00 TS 12.60 -43.30 50
NA 03:00:00 TS 12.90 -43.60 50
NA 06:00:00 TS 13.20 -43.90 50
NA 09:00:00 TS 13.51 -44.21 52
NA 12:00:00 TS 13.80 -44.50 55
NA 15:00:00 TS 14.06 -44.77 55
NA 18:00:00 TS 14.30 -45.00 55
NA 21:00:00 TS 14.51 -45.20 55
NA 1887-10-05 00:00:00 TS 14.70 -45.40 55
NA 03:00:00 TS 14.90 -45.64 55
NA 06:00:00 TS 15.10 -45.90 55
NA 09:00:00 TS 15.28 -46.14 55
NA 12:00:00 TS 15.50 -46.40 55
NA 15:00:00 TS 15.84 -46.70 55
NA 18:00:00 TS 16.20 -47.00 55
NA 21:00:00 TS 16.51 -47.26 55
NA 1887-10-06 00:00:00 TS 16.80 -47.50 55
NA 03:00:00 TS 17.10 -47.75 55
NA 06:00:00 TS 17.40 -48.00 55
NA 09:00:00 TS 17.69 -48.27 55
NA 12:00:00 TS 18.00 -48.50 55
NA 15:00:00 TS 18.35 -48.67 55
NA 18:00:00 TS 18.70 -48.80 55
NA 21:00:00 TS 19.01 -48.95 57
NA 1887-10-07 00:00:00 TS 19.30 -49.10 60
NA 03:00:00 TS 19.60 -49.26 60
NA 06:00:00 TS 19.90 -49.40 60
NA 09:00:00 TS 20.19 -49.51 60
NA 12:00:00 TS 20.50 -49.60 60
NA 15:00:00 TS 20.85 -49.71 60
NA 18:00:00 TS 21.20 -49.80 60
NA 21:00:00 TS 21.51 -49.86 62
NA 1887-10-08 00:00:00 TS 21.80 -49.90 65
NA 03:00:00 TS 22.10 -49.96 65
NA 06:00:00 TS 22.40 -50.00 65
NA 09:00:00 TS 22.71 -50.02 65
NA 12:00:00 TS 23.00 -50.00 65
NA 15:00:00 TS 23.26 -49.92 65
NA 18:00:00 TS 23.50 -49.80 65
NA 21:00:00 TS 23.75 -49.66 67
NA 1887-10-09 00:00:00 TS 24.00 -49.50 70
NA 03:00:00 TS 24.25 -49.31 70
NA 06:00:00 TS 24.50 -49.10 70
NA 09:00:00 TS 24.75 -48.92 70
NA 12:00:00 TS 25.00 -48.70 70
NA 15:00:00 TS 25.26 -48.37 70
NA 18:00:00 TS 25.50 -48.00 70
NA 21:00:00 TS 25.70 -47.69 72
NA 1887-10-10 00:00:00 TS 25.90 -47.40 75
NA 03:00:00 TS 26.15 -47.10 75
NA 06:00:00 TS 26.40 -46.80 75
NA 09:00:00 TS 26.55 -46.56 75
NA 12:00:00 TS 26.80 -46.20 75
NA 15:00:00 TS 27.30 -45.58 75
NA 18:00:00 TS 28.00 -44.80 75
NA 21:00:00 TS 28.82 -43.95 75
NA 1887-10-11 00:00:00 TS 29.70 -43.10 75
NA 03:00:00 TS 30.42 -42.40 75
NA 06:00:00 TS 31.30 -41.70 75
NA 09:00:00 TS 32.62 -40.82 75
NA 12:00:00 TS 34.10 -40.00 75
NA 15:00:00 TS 35.45 -39.36 77
NA 18:00:00 TS 36.80 -39.00 80 989
NA 21:00:00 TS 38.20 -39.08 77
NA 1887-10-12 00:00:00 TS 39.60 -39.20 75
NA 03:00:00 TS 40.96 -38.88 72
NA 06:00:00 TS 42.30 -38.40 70
NA 09:00:00 TS 43.89 -37.99 65
NA 12:00:00 ET 45.00 -37.50 60 965
NA 15:00:00 ET 44.99 -36.87 60
NA 18:00:00 ET 44.50 -36.20 60
NA 21:00:00 ET 44.27 -35.60 60
NA 1887-10-13 00:00:00 ET 44.00 -35.00 60
NA 03:00:00 ET 43.61 -34.35 57
NA 06:00:00 ET 43.20 -33.70 55
NA 09:00:00 ET 42.86 -33.16 55
NA 12:00:00 ET 42.50 -32.50 55 995
NA 15:00:00 ET 42.02 -31.52 55
NA 18:00:00 ET 41.50 -30.40 55
NA 21:00:00 ET 41.00 -29.35 52
NA 1887-10-14 00:00:00 ET 40.50 -28.30 50
NA 03:00:00 ET 40.00 -27.26 50
NA 06:00:00 ET 39.50 -26.20 50
NA 09:00:00 ET 38.90 -24.96 50
NA 12:00:00 ET 38.50 -24.00 50 997
NA 15:00:00 ET 38.56 -23.70 50
NA 18:00:00 ET 38.80 -23.70 50
NA 21:00:00 ET 38.90 -23.60 47
NA 1887-10-15 00:00:00 ET 39.00 -23.50 45
NA 03:00:00 ET 39.15 -23.35 45
NA 06:00:00 ET 39.30 -23.20 45
NA 09:00:00 ET 39.44 -23.04 42
NA 12:00:00 ET 39.50 -23.00 40 997
NA 15:00:00 ET 39.42 -23.20 40
NA 18:00:00 ET 39.30 -23.50 40
NA 21:00:00 ET 39.24 -23.75 37
NA 1887-10-16 00:00:00 ET 39.20 -24.00 35
NA 03:00:00 ET 39.15 -24.25 35
NA 06:00:00 ET 39.10 -24.50 35
NA 09:00:00 ET 39.05 -24.73 32
NA 12:00:00 ET 39.00 -25.00 30 1001
NA 15:00:00 ET 38.95 -25.34 30
NA 18:00:00 ET 38.90 -25.70 30
NA 21:00:00 ET 38.83 -26.01 30
NA 1887-10-17 00:00:00 ET 38.80 -26.30 30
NA 03:00:00 ET 38.83 -26.60 30
NA 06:00:00 ET 38.90 -26.90 30
NA 09:00:00 ET 38.89 -27.18 30
NA 12:00:00 ET 39.00 -27.50 30 1001
NA 15:00:00 ET 39.38 -27.93 30
NA 18:00:00 ET 39.90 -28.40 30
NA 21:00:00 ET 40.44 -28.85 30
NA 1887-10-18 00:00:00 ET 40.90 -29.30 30
NA 03:00:00 ET 41.14 -29.76 30
NA 06:00:00 ET 41.30 -30.20 30
NA 09:00:00 ET 41.63 -30.61 30
NA 12:00:00 ET 41.80 -31.00 30 1001
NA 15:00:00 ET 41.54 -31.41 30
NA 18:00:00 ET 41.10 -31.80 30
NA 21:00:00 ET 40.75 -32.15 30
NA 1887-10-19 00:00:00 ET 40.40 -32.50 30
NA 03:00:00 ET 40.05 -32.90 30
NA 06:00:00 ET 39.70 -33.30 30
NA 09:00:00 ET 39.27 -33.82 30
NA 12:00:00 ET 39.00 -34.00 30 1003
NA 15:00:00 ET 39.08 -33.42 30
NA 18:00:00 ET 39.30 -32.50 30
NA 21:00:00 ET 39.45 -31.79 30
NA 1887-10-20 00:00:00 ET 39.60 -31.00 30
NA 03:00:00 ET 39.75 -30.04 30
NA 06:00:00 ET 39.90 -29.00 30
NA 09:00:00 ET 40.06 -27.74 30
NA 12:00:00 ET 40.20 -27.00 30 1003
NA 15:00:00 ET 40.31 -27.49 30
NA 18:00:00 ET 40.40 -28.50 30
NA 21:00:00 ET 40.50 -29.25 30
NA 1887-10-21 00:00:00 ET 40.60 -30.00 30
NA 03:00:00 ET 40.70 -30.75 30
NA 06:00:00 ET 40.80 -31.50 30
NA 09:00:00 ET 40.90 -32.25 27
NA 12:00:00 ET 41.00 -33.00 25 1004

Source Information

Agency Information
USA
TOKYO
CMA
HKO
NEWDELHI
REUNION
BOM
NADI
WELLINGTON
DS824
TD9636
TD9635
NEUMANN
MLC

All available IBTrACS Data

SEASON BASIN SUBBASIN ISO_TIME_________ NATURE LAT LON DIST2LAND LANDFALL IFLAG USA SSHS MLC LAT MLC LON MLC CLASS MLC WIND MLC PRES STORM SPEED STORM DIR
Year degrees north degrees east km km 1 degrees north degrees east kts mb kts degrees
1887 NA NA 1887-10-02 12:00:00 TS 11.50 -38.00 1625 1619 _____________O -1 11.50 -38.00 TS 45 1002 10 270
1887 NA NA 15:00:00 TS 11.50 -38.50 1619 1576 _____________P -1 11.50 -38.50 TS 45 10 270
1887 NA NA 18:00:00 TS 11.50 -39.00 1576 1529 _____________O -1 11.50 -39.00 TS 45 10 270
1887 NA NA 21:00:00 TS 11.50 -39.50 1529 1483 _____________P -1 11.50 -39.50 TS 45 10 270
1887 NA NA 1887-10-03 00:00:00 TS 11.50 -40.00 1483 1437 _____________O -1 11.50 -40.00 TS 45 10 270
1887 NA NA 03:00:00 TS 11.50 -40.50 1437 1392 _____________P -1 11.50 -40.50 TS 45 10 270
1887 NA NA 06:00:00 TS 11.50 -41.00 1392 1347 _____________O -1 11.50 -41.00 TS 45 10 268
1887 NA NA 09:00:00 TS 11.46 -41.52 1347 1303 _____________P -1 11.46 -41.52 TS 47 10 270
1887 NA NA 12:00:00 TS 11.50 -42.00 1303 1283 _____________O -1 11.50 -42.00 TS 50 9 286
1887 NA NA 15:00:00 TS 11.70 -42.38 1283 1280 _____________P -1 11.70 -42.38 TS 50 9 306
1887 NA NA 18:00:00 TS 12.00 -42.70 1280 1271 _____________O -1 12.00 -42.70 TS 50 9 314
1887 NA NA 21:00:00 TS 12.29 -43.01 1279 1271 _____________P -1 12.29 -43.01 TS 50 8 316
1887 NA NA 1887-10-04 00:00:00 TS 12.60 -43.30 1280 1280 _____________O -1 12.60 -43.30 TS 50 8 316
1887 NA NA 03:00:00 TS 12.90 -43.60 1282 1282 _____________P -1 12.90 -43.60 TS 50 8 316
1887 NA NA 06:00:00 TS 13.20 -43.90 1286 1286 _____________O -1 13.20 -43.90 TS 50 9 316
1887 NA NA 09:00:00 TS 13.51 -44.21 1292 1292 _____________P -1 13.51 -44.21 TS 52 8 316
1887 NA NA 12:00:00 TS 13.80 -44.50 1299 1299 _____________O -1 13.80 -44.50 TS 55 8 316
1887 NA NA 15:00:00 TS 14.06 -44.77 1309 1309 _____________P -1 14.06 -44.77 TS 55 7 316
1887 NA NA 18:00:00 TS 14.30 -45.00 1316 1316 _____________O -1 14.30 -45.00 TS 55 6 316
1887 NA NA 21:00:00 TS 14.51 -45.20 1319 1319 _____________P -1 14.51 -45.20 TS 55 6 316
1887 NA NA 1887-10-05 00:00:00 TS 14.70 -45.40 1324 1317 _____________O -1 14.70 -45.40 TS 55 6 313
1887 NA NA 03:00:00 TS 14.90 -45.64 1329 1323 _____________P -1 14.90 -45.64 TS 55 6 310
1887 NA NA 06:00:00 TS 15.10 -45.90 1329 1323 _____________O -1 15.10 -45.90 TS 55 6 308
1887 NA NA 09:00:00 TS 15.28 -46.14 1335 1330 _____________P -1 15.28 -46.14 TS 55 6 310
1887 NA NA 12:00:00 TS 15.50 -46.40 1337 1337 _____________O -1 15.50 -46.40 TS 55 8 316
1887 NA NA 15:00:00 TS 15.84 -46.70 1350 1350 _____________P -1 15.84 -46.70 TS 55 9 320
1887 NA NA 18:00:00 TS 16.20 -47.00 1375 1375 _____________O -1 16.20 -47.00 TS 55 9 321
1887 NA NA 21:00:00 TS 16.51 -47.26 1390 1390 _____________P -1 16.51 -47.26 TS 55 8 321
1887 NA NA 1887-10-06 00:00:00 TS 16.80 -47.50 1411 1411 _____________O -1 16.80 -47.50 TS 55 8 322
1887 NA NA 03:00:00 TS 17.10 -47.75 1429 1429 _____________P -1 17.10 -47.75 TS 55 8 321
1887 NA NA 06:00:00 TS 17.40 -48.00 1452 1452 _____________O -1 17.40 -48.00 TS 55 8 320
1887 NA NA 09:00:00 TS 17.69 -48.27 1468 1468 _____________P -1 17.69 -48.27 TS 55 8 322
1887 NA NA 12:00:00 TS 18.00 -48.50 1489 1489 _____________O -1 18.00 -48.50 TS 55 8 330
1887 NA NA 15:00:00 TS 18.35 -48.67 1511 1511 _____________P -1 18.35 -48.67 TS 55 8 338
1887 NA NA 18:00:00 TS 18.70 -48.80 1548 1548 _____________O -1 18.70 -48.80 TS 55 7 338
1887 NA NA 21:00:00 TS 19.01 -48.95 1571 1571 _____________P -1 19.01 -48.95 TS 57 7 335
1887 NA NA 1887-10-07 00:00:00 TS 19.30 -49.10 1598 1597 _____________O -1 19.30 -49.10 TS 60 7 334
1887 NA NA 03:00:00 TS 19.60 -49.26 1602 1602 _____________P -1 19.60 -49.26 TS 60 7 335
1887 NA NA 06:00:00 TS 19.90 -49.40 1614 1612 _____________O -1 19.90 -49.40 TS 60 6 339
1887 NA NA 09:00:00 TS 20.19 -49.51 1626 1625 _____________P -1 20.19 -49.51 TS 60 6 342
1887 NA NA 12:00:00 TS 20.50 -49.60 1640 1640 _____________O -1 20.50 -49.60 TS 60 7 344
1887 NA NA 15:00:00 TS 20.85 -49.71 1661 1661 _____________P -1 20.85 -49.71 TS 60 7 345
1887 NA NA 18:00:00 TS 21.20 -49.80 1676 1676 _____________O -1 21.20 -49.80 TS 60 7 348
1887 NA NA 21:00:00 TS 21.51 -49.86 1676 1676 _____________P -1 21.51 -49.86 TS 62 6 351
1887 NA NA 1887-10-08 00:00:00 TS 21.80 -49.90 1681 1678 _____________O -1 21.80 -49.90 HU 65 6 352
1887 NA NA 03:00:00 TS 22.10 -49.96 1678 1678 _____________P -1 22.10 -49.96 HU 65 6 352
1887 NA NA 06:00:00 TS 22.40 -50.00 1685 1685 _____________O -1 22.40 -50.00 HU 65 6 354
1887 NA NA 09:00:00 TS 22.71 -50.02 1692 1692 _____________P -1 22.71 -50.02 HU 65 6 1
1887 NA NA 12:00:00 TS 23.00 -50.00 1700 1700 _____________O -1 23.00 -50.00 HU 65 6 9
1887 NA NA 15:00:00 TS 23.26 -49.92 1719 1719 _____________P -1 23.26 -49.92 HU 65 5 20
1887 NA NA 18:00:00 TS 23.50 -49.80 1735 1735 _____________O -1 23.50 -49.80 HU 65 5 26
1887 NA NA 21:00:00 TS 23.75 -49.66 1751 1751 _____________P -1 23.75 -49.66 HU 67 6 29
1887 NA NA 1887-10-09 00:00:00 TS 24.00 -49.50 1780 1780 _____________O -1 24.00 -49.50 HU 70 6 33
1887 NA NA 03:00:00 TS 24.25 -49.31 1810 1810 _____________P -1 24.25 -49.31 HU 70 6 36
1887 NA NA 06:00:00 TS 24.50 -49.10 1836 1836 _____________O -1 24.50 -49.10 HU 70 6 35
1887 NA NA 09:00:00 TS 24.75 -48.92 1862 1862 _____________P -1 24.75 -48.92 HU 70 6 36
1887 NA NA 12:00:00 TS 25.00 -48.70 1892 1892 _____________O -1 25.00 -48.70 HU 70 7 45
1887 NA NA 15:00:00 TS 25.26 -48.37 1932 1932 _____________P -1 25.26 -48.37 HU 70 8 52
1887 NA NA 18:00:00 TS 25.50 -48.00 1978 1978 _____________O -1 25.50 -48.00 HU 70 8 54
1887 NA NA 21:00:00 TS 25.70 -47.69 2014 2014 _____________P -1 25.70 -47.69 HU 72 7 54
1887 NA NA 1887-10-10 00:00:00 TS 25.90 -47.40 2049 2049 _____________O -1 25.90 -47.40 HU 75 7 50
1887 NA NA 03:00:00 TS 26.15 -47.10 2085 2085 _____________P -1 26.15 -47.10 HU 75 7 47
1887 NA NA 06:00:00 TS 26.40 -46.80 2125 2125 _____________O -1 26.40 -46.80 HU 75 6 51
1887 NA NA 09:00:00 TS 26.55 -46.56 2148 2148 _____________P -1 26.55 -46.56 HU 75 7 53
1887 NA NA 12:00:00 TS 26.80 -46.20 2197 2197 _____________O -1 26.80 -46.20 HU 75 12 49
1887 NA NA 15:00:00 TS 27.30 -45.58 2250 2196 _____________P -1 27.30 -45.58 HU 75 17 46
1887 NA NA 18:00:00 TS 28.00 -44.80 2196 2136 _____________O -1 28.00 -44.80 HU 75 21 44
1887 NA NA 21:00:00 TS 28.82 -43.95 2136 2073 _____________P -1 28.82 -43.95 HU 75 23 41
1887 NA NA 1887-10-11 00:00:00 TS 29.70 -43.10 2073 2028 _____________O -1 29.70 -43.10 HU 75 21 40
1887 NA NA 03:00:00 TS 30.42 -42.40 2028 1971 _____________P -1 30.42 -42.40 HU 75 20 37
1887 NA NA 06:00:00 TS 31.30 -41.70 1966 1884 _____________O -1 31.30 -41.70 HU 75 26 31
1887 NA NA 09:00:00 TS 32.62 -40.82 1879 1786 _____________P -1 32.62 -40.82 HU 75 32 27
1887 NA NA 12:00:00 TS 34.10 -40.00 1777 1693 _____________O -1 34.10 -40.00 HU 75 31 23
1887 NA NA 15:00:00 TS 35.45 -39.36 1693 1606 _____________P -1 35.45 -39.36 HU 77 28 17
1887 NA NA 18:00:00 TS 36.80 -39.00 1598 1488 _____________O -1 36.80 -39.00 HU 80 989 28 5
1887 NA NA 21:00:00 TS 38.20 -39.08 1480 1376 _____________P -1 38.20 -39.08 HU 77 28 357
1887 NA NA 1887-10-12 00:00:00 TS 39.60 -39.20 1369 1300 _____________O -1 39.60 -39.20 HU 75 28 3
1887 NA NA 03:00:00 TS 40.96 -38.88 1294 1257 _____________P -1 40.96 -38.88 HU 72 28 13
1887 NA NA 06:00:00 TS 42.30 -38.40 1252 1200 _____________O -1 42.30 -38.40 HU 70 30 13
1887 NA NA 09:00:00 TS 43.89 -37.99 1195 1179 _____________P -1 43.89 -37.99 HU 65 28 14
1887 NA NA 12:00:00 ET 45.00 -37.50 1187 1187 _____________O -1 45.00 -37.50 EX 60 965 14 36
1887 NA NA 15:00:00 ET 44.99 -36.87 1231 1231 _____________P -1 44.99 -36.87 EX 60 10 119
1887 NA NA 18:00:00 ET 44.50 -36.20 1302 1302 _____________O -1 44.50 -36.20 EX 60 12 129
1887 NA NA 21:00:00 ET 44.27 -35.60 1354 1354 _____________P -1 44.27 -35.60 EX 60 10 120
1887 NA NA 1887-10-13 00:00:00 ET 44.00 -35.00 1411 1411 _____________O -1 44.00 -35.00 EX 60 11 126
1887 NA NA 03:00:00 ET 43.61 -34.35 1479 1479 _____________P -1 43.61 -34.35 EX 57 12 130
1887 NA NA 06:00:00 ET 43.20 -33.70 1542 1542 _____________O -1 43.20 -33.70 EX 55 11 131
1887 NA NA 09:00:00 ET 42.86 -33.16 1592 1592 _____________P -1 42.86 -33.16 EX 55 11 129
1887 NA NA 12:00:00 ET 42.50 -32.50 1663 1663 _____________O -1 42.50 -32.50 EX 55 995 15 125
1887 NA NA 15:00:00 ET 42.02 -31.52 1761 1739 _____________P -1 42.02 -31.52 EX 55 19 123
1887 NA NA 18:00:00 ET 41.50 -30.40 1734 1665 _____________O -1 41.50 -30.40 EX 55 19 122
1887 NA NA 21:00:00 ET 41.00 -29.35 1665 1596 _____________P -1 41.00 -29.35 EX 52 19 122
1887 NA NA 1887-10-14 00:00:00 ET 40.50 -28.30 1591 1526 _____________O -1 40.50 -28.30 EX 50 19 122
1887 NA NA 03:00:00 ET 40.00 -27.26 1526 1444 _____________P -1 40.00 -27.26 EX 50 19 122
1887 NA NA 06:00:00 ET 39.50 -26.20 1435 1336 _____________O -1 39.50 -26.20 EX 50 21 122
1887 NA NA 09:00:00 ET 38.90 -24.96 1336 1254 _____________P -1 38.90 -24.96 EX 50 20 120
1887 NA NA 12:00:00 ET 38.50 -24.00 1254 1228 _____________O -1 38.50 -24.00 EX 50 997 10 109
1887 NA NA 15:00:00 ET 38.56 -23.70 1227 1225 _____________P -1 38.56 -23.70 EX 50 4 38
1887 NA NA 18:00:00 ET 38.80 -23.70 1225 1216 _____________O -1 38.80 -23.70 EX 50 4 14
1887 NA NA 21:00:00 ET 38.90 -23.60 1216 1207 _____________P -1 38.90 -23.60 EX 47 3 38
1887 NA NA 1887-10-15 00:00:00 ET 39.00 -23.50 1207 1197 _____________O -1 39.00 -23.50 EX 45 3 38
1887 NA NA 03:00:00 ET 39.15 -23.35 1197 1179 _____________P -1 39.15 -23.35 EX 45 4 38
1887 NA NA 06:00:00 ET 39.30 -23.20 1179 1162 _____________O -1 39.30 -23.20 EX 45 4 40
1887 NA NA 09:00:00 ET 39.44 -23.04 1162 1162 _____________P -1 39.44 -23.04 EX 42 3 38
1887 NA NA 12:00:00 ET 39.50 -23.00 1162 1162 _____________O -1 39.50 -23.00 EX 40 997 1 263
1887 NA NA 15:00:00 ET 39.42 -23.20 1179 1179 _____________P -1 39.42 -23.20 EX 40 4 243
1887 NA NA 18:00:00 ET 39.30 -23.50 1205 1205 _____________O -1 39.30 -23.50 EX 40 5 247
1887 NA NA 21:00:00 ET 39.24 -23.75 1223 1223 _____________P -1 39.24 -23.75 EX 37 4 256
1887 NA NA 1887-10-16 00:00:00 ET 39.20 -24.00 1248 1248 _____________O -1 39.20 -24.00 EX 35 4 257
1887 NA NA 03:00:00 ET 39.15 -24.25 1266 1266 _____________P -1 39.15 -24.25 EX 35 4 256
1887 NA NA 06:00:00 ET 39.10 -24.50 1292 1292 _____________O -1 39.10 -24.50 EX 35 4 255
1887 NA NA 09:00:00 ET 39.05 -24.73 1310 1310 _____________P -1 39.05 -24.73 EX 32 4 256
1887 NA NA 12:00:00 ET 39.00 -25.00 1336 1336 _____________O -1 39.00 -25.00 EX 30 1001 5 258
1887 NA NA 15:00:00 ET 38.95 -25.34 1361 1361 _____________P -1 38.95 -25.34 EX 30 6 260
1887 NA NA 18:00:00 ET 38.90 -25.70 1397 1397 _____________O -1 38.90 -25.70 EX 30 5 257
1887 NA NA 21:00:00 ET 38.83 -26.01 1423 1423 _____________P -1 38.83 -26.01 EX 30 5 258
1887 NA NA 1887-10-17 00:00:00 ET 38.80 -26.30 1449 1449 _____________O -1 38.80 -26.30 EX 30 5 270
1887 NA NA 03:00:00 ET 38.83 -26.60 1475 1475 _____________P -1 38.83 -26.60 EX 30 5 282
1887 NA NA 06:00:00 ET 38.90 -26.90 1500 1500 _____________O -1 38.90 -26.90 EX 30 5 277
1887 NA NA 09:00:00 ET 38.89 -27.18 1521 1521 _____________P -1 38.89 -27.18 EX 30 5 282
1887 NA NA 12:00:00 ET 39.00 -27.50 1546 1546 _____________O -1 39.00 -27.50 EX 30 1001 8 310
1887 NA NA 15:00:00 ET 39.38 -27.93 1581 1581 _____________P -1 39.38 -27.93 EX 30 11 322
1887 NA NA 18:00:00 ET 39.90 -28.40 1618 1618 _____________O -1 39.90 -28.40 EX 30 13 326
1887 NA NA 21:00:00 ET 40.44 -28.85 1634 1634 _____________P -1 40.44 -28.85 EX 30 12 326
1887 NA NA 1887-10-18 00:00:00 ET 40.90 -29.30 1660 1660 _____________O -1 40.90 -29.30 EX 30 10 316
1887 NA NA 03:00:00 ET 41.14 -29.76 1695 1693 _____________P -1 41.14 -29.76 EX 30 8 301
1887 NA NA 06:00:00 ET 41.30 -30.20 1722 1722 _____________O -1 41.30 -30.20 EX 30 8 308
1887 NA NA 09:00:00 ET 41.63 -30.61 1747 1747 _____________P -1 41.63 -30.61 EX 30 8 310
1887 NA NA 12:00:00 ET 41.80 -31.00 1775 1775 _____________O -1 41.80 -31.00 EX 30 1001 6 261
1887 NA NA 15:00:00 ET 41.54 -31.41 1795 1784 _____________P -1 41.54 -31.41 EX 30 9 221
1887 NA NA 18:00:00 ET 41.10 -31.80 1788 1784 _____________O -1 41.10 -31.80 EX 30 10 215
1887 NA NA 21:00:00 ET 40.75 -32.15 1790 1779 _____________P -1 40.75 -32.15 EX 30 9 217
1887 NA NA 1887-10-19 00:00:00 ET 40.40 -32.50 1779 1770 _____________O -1 40.40 -32.50 EX 30 9 219
1887 NA NA 03:00:00 ET 40.05 -32.90 1770 1767 _____________P -1 40.05 -32.90 EX 30 9 221
1887 NA NA 06:00:00 ET 39.70 -33.30 1767 1757 _____________O -1 39.70 -33.30 EX 30 11 222
1887 NA NA 09:00:00 ET 39.27 -33.82 1757 1749 _____________P -1 39.27 -33.82 EX 30 9 218
1887 NA NA 12:00:00 ET 39.00 -34.00 1762 1762 _____________O -1 39.00 -34.00 EX 30 1003 4 122
1887 NA NA 15:00:00 ET 39.08 -33.42 1798 1798 _____________P -1 39.08 -33.42 EX 30 12 76
1887 NA NA 18:00:00 ET 39.30 -32.50 1849 1849 _____________O -1 39.30 -32.50 EX 30 13 74
1887 NA NA 21:00:00 ET 39.45 -31.79 1850 1810 _____________P -1 39.45 -31.79 EX 30 12 75
1887 NA NA 1887-10-20 00:00:00 ET 39.60 -31.00 1810 1760 _____________O -1 39.60 -31.00 EX 30 14 77
1887 NA NA 03:00:00 ET 39.75 -30.04 1751 1675 _____________P -1 39.75 -30.04 EX 30 16 79
1887 NA NA 06:00:00 ET 39.90 -29.00 1667 1563 _____________O -1 39.90 -29.00 EX 30 18 80
1887 NA NA 09:00:00 ET 40.06 -27.74 1555 1495 _____________P -1 40.06 -27.74 EX 30 16 79
1887 NA NA 12:00:00 ET 40.20 -27.00 1495 1495 _____________O -1 40.20 -27.00 EX 30 1003 3 38
1887 NA NA 15:00:00 ET 40.31 -27.49 1532 1532 _____________P -1 40.31 -27.49 EX 30 12 280
1887 NA NA 18:00:00 ET 40.40 -28.50 1610 1610 _____________O -1 40.40 -28.50 EX 30 14 278
1887 NA NA 21:00:00 ET 40.50 -29.25 1672 1672 _____________P -1 40.50 -29.25 EX 30 12 280
1887 NA NA 1887-10-21 00:00:00 ET 40.60 -30.00 1725 1725 _____________O -1 40.60 -30.00 EX 30 12 280
1887 NA NA 03:00:00 ET 40.70 -30.75 1787 1787 _____________P -1 40.70 -30.75 EX 30 12 280
1887 NA NA 06:00:00 ET 40.80 -31.50 1827 1771 _____________O -1 40.80 -31.50 EX 30 11 280
1887 NA NA 09:00:00 ET 40.90 -32.25 1771 1708 _____________P -1 40.90 -32.25 EX 27 11 280
1887 NA NA 12:00:00 ET 41.00 -33.00 1708 _____________O -1 41.00 -33.00 EX 25 1004 11 280